Time;durP1;ratioP1;P1;durP2;ratioP2;P2;SDS_P1;SDS_P2;PMS_P1;PMS_P2;Temp;Humidity;BMP_temperature;BMP_pressure;BME280_temperature;BME280_humidity;BME280_pressure;Samples;Min_cycle;Max_cycle;Signal;HPM_P1;HPM_P2
2022/01/10 00:00:57;;;;;;;49.73;23.73;;;;;;;;;;5034265;28;20427;-66
2022/01/10 00:03:24;;;;;;;39.67;22.73;;;;;;;;;;5035666;28;20183;-65
2022/01/10 00:05:50;;;;;;;42.43;22.47;;;;;;;;;;5036952;28;20212;-65
2022/01/10 00:08:16;;;;;;;45.10;23.53;;;;;;;;;;5037185;28;20414;-65
2022/01/10 00:10:43;;;;;;;45.73;23.27;;;;;;;;;;5036588;28;20521;-65
2022/01/10 00:13:09;;;;;;;47.13;24.67;;;;;;;;;;5036420;28;20239;-65
2022/01/10 00:15:35;;;;;;;48.87;23.70;;;;;;;;;;5037144;28;20496;-65
2022/01/10 00:18:01;;;;;;;47.60;25.10;;;;;;;;;;5051642;28;20190;-65
2022/01/10 00:20:27;;;;;;;48.30;25.20;;;;;;;;;;5051926;28;20193;-66
2022/01/10 00:22:53;;;;;;;52.33;25.70;;;;;;;;;;5051923;28;20194;-65
2022/01/10 00:25:21;;;;;;;53.10;25.63;;;;;;;;;;5036676;28;20206;-65
2022/01/10 00:27:48;;;;;;;48.50;25.70;;;;;;;;;;5051602;28;20412;-68
2022/01/10 00:30:14;;;;;;;59.23;26.83;;;;;;;;;;5051488;28;20413;-65
2022/01/10 00:32:41;;;;;;;53.27;26.03;;;;;;;;;;5036474;28;20764;-65
2022/01/10 00:35:08;;;;;;;57.13;26.47;;;;;;;;;;5036411;28;20416;-65
2022/01/10 00:37:34;;;;;;;58.10;26.07;;;;;;;;;;5036193;28;20493;-65
2022/01/10 00:40:01;;;;;;;53.67;26.10;;;;;;;;;;5036481;28;20442;-65
2022/01/10 00:42:29;;;;;;;63.17;25.97;;;;;;;;;;5036155;28;20424;-65
2022/01/10 00:44:57;;;;;;;52.10;24.70;;;;;;;;;;5036130;28;20456;-66
2022/01/10 00:47:23;;;;;;;55.50;27.27;;;;;;;;;;5036007;28;20421;-65
2022/01/10 00:49:49;;;;;;;56.00;26.30;;;;;;;;;;5036118;28;20754;-66
2022/01/10 00:52:15;;;;;;;53.23;25.63;;;;;;;;;;5035918;28;20638;-65
2022/01/10 00:54:41;;;;;;;56.40;26.07;;;;;;;;;;5036334;28;20175;-65
2022/01/10 00:57:07;;;;;;;61.87;27.77;;;;;;;;;;5050949;28;20473;-66
2022/01/10 00:59:33;;;;;;;62.13;30.37;;;;;;;;;;5035981;28;20429;-66
2022/01/10 01:01:59;;;;;;;62.30;29.47;;;;;;;;;;5036204;28;20257;-65
2022/01/10 01:04:25;;;;;;;60.83;28.03;;;;;;;;;;5035453;28;20208;-66
2022/01/10 01:06:51;;;;;;;55.37;26.37;;;;;;;;;;5035506;28;20444;-65
2022/01/10 01:09:21;;;;;;;62.10;27.57;;;;;;;;;;5035800;28;20820;-65
2022/01/10 01:12:14;;;;;;;54.80;24.77;;;;;;;;;;5035536;28;20490;-66
2022/01/10 01:17:13;;;;;;;77.03;31.93;;;;;;;;;;5035254;28;20776;-66
2022/01/10 01:20:06;;;;;;;61.97;28.23;;;;;;;;;;5035623;28;20421;-65
2022/01/10 01:25:16;;;;;;;73.30;35.47;;;;;;;;;;5035589;28;20473;-65
2022/01/10 01:27:43;;;;;;;75.53;33.60;;;;;;;;;;5050731;28;20946;-65
2022/01/10 01:30:10;;;;;;;66.73;26.90;;;;;;;;;;5035295;28;20201;-65
2022/01/10 01:32:36;;;;;;;58.27;27.53;;;;;;;;;;5035606;28;20747;-65
2022/01/10 01:35:06;;;;;;;63.37;26.30;;;;;;;;;;5035573;28;20413;-65
2022/01/10 01:37:32;;;;;;;67.77;27.90;;;;;;;;;;5034743;28;20441;-65
2022/01/10 01:39:58;;;;;;;60.07;26.50;;;;;;;;;;5050153;28;20422;-65
2022/01/10 01:42:40;;;;;;;55.07;25.70;;;;;;;;;;5050064;28;20423;-65
2022/01/10 01:45:08;;;;;;;61.20;26.27;;;;;;;;;;5035079;28;20449;-65
2022/01/10 01:47:34;;;;;;;66.73;26.37;;;;;;;;;;5049866;28;20492;-64
2022/01/10 01:50:00;;;;;;;56.67;25.20;;;;;;;;;;5049971;28;20419;-65
2022/01/10 01:52:27;;;;;;;64.50;27.63;;;;;;;;;;5034559;28;20902;-65
2022/01/10 01:54:53;;;;;;;63.10;27.33;;;;;;;;;;5035027;28;20402;-64
2022/01/10 01:57:19;;;;;;;72.30;29.20;;;;;;;;;;5034301;28;20463;-65
2022/01/10 01:59:45;;;;;;;65.53;26.37;;;;;;;;;;5034482;28;20458;-65
2022/01/10 02:02:11;;;;;;;73.10;28.67;;;;;;;;;;5049666;28;20421;-64
2022/01/10 02:04:37;;;;;;;62.57;27.03;;;;;;;;;;5034758;28;20203;-64
2022/01/10 02:07:03;;;;;;;54.97;27.47;;;;;;;;;;5034162;28;20693;-65
2022/01/10 02:09:30;;;;;;;59.70;25.27;;;;;;;;;;5034480;28;20295;-65
2022/01/10 02:11:57;;;;;;;57.40;25.87;;;;;;;;;;5034388;28;20559;-65
2022/01/10 02:14:23;;;;;;;59.83;29.30;;;;;;;;;;5034376;28;20418;-65
2022/01/10 02:16:55;;;;;;;72.97;28.73;;;;;;;;;;5034067;28;20433;-64
2022/01/10 02:19:21;;;;;;;68.77;28.30;;;;;;;;;;5049489;28;20843;-65
2022/01/10 02:21:47;;;;;;;70.20;29.10;;;;;;;;;;5034535;28;20442;-65
2022/01/10 02:24:13;;;;;;;67.57;30.07;;;;;;;;;;5033972;28;20898;-65
2022/01/10 02:26:39;;;;;;;67.03;29.93;;;;;;;;;;5033089;28;20530;-64
2022/01/10 02:29:06;;;;;;;68.57;30.67;;;;;;;;;;5034015;28;20186;-65
2022/01/10 02:31:36;;;;;;;64.23;29.13;;;;;;;;;;5034091;28;20181;-65
2022/01/10 02:34:02;;;;;;;86.10;36.00;;;;;;;;;;5049381;28;20412;-65
2022/01/10 02:36:28;;;;;;;89.70;40.83;;;;;;;;;;5033713;28;20435;-64
2022/01/10 02:38:56;;;;;;;132.90;53.70;;;;;;;;;;5034164;28;20413;-65
2022/01/10 02:41:26;;;;;;;115.20;50.50;;;;;;;;;;5049048;28;20509;-65
2022/01/10 02:43:53;;;;;;;120.33;52.60;;;;;;;;;;5033827;28;20859;-64
2022/01/10 02:46:19;;;;;;;121.10;57.47;;;;;;;;;;5033497;28;20479;-64
2022/01/10 02:48:45;;;;;;;117.70;53.80;;;;;;;;;;5033644;28;20450;-64
2022/01/10 02:51:11;;;;;;;87.43;41.13;;;;;;;;;;5033864;28;20410;-65
2022/01/10 02:53:37;;;;;;;87.60;37.20;;;;;;;;;;5048964;28;20468;-65
2022/01/10 02:56:03;;;;;;;70.97;30.73;;;;;;;;;;5033316;28;20454;-64
2022/01/10 02:58:29;;;;;;;82.60;30.40;;;;;;;;;;5034085;28;20527;-65
2022/01/10 03:00:55;;;;;;;70.67;30.27;;;;;;;;;;5034062;28;20501;-64
2022/01/10 03:03:21;;;;;;;78.50;29.30;;;;;;;;;;5033468;28;20171;-65
2022/01/10 03:05:47;;;;;;;80.87;30.40;;;;;;;;;;5033606;28;20468;-64
2022/01/10 03:08:13;;;;;;;72.07;29.40;;;;;;;;;;5033423;28;20295;-65
2022/01/10 03:10:39;;;;;;;74.47;31.03;;;;;;;;;;5048801;28;20436;-66
2022/01/10 03:13:05;;;;;;;88.63;31.93;;;;;;;;;;5049023;28;20175;-65
2022/01/10 03:15:31;;;;;;;87.30;33.83;;;;;;;;;;5033290;28;20187;-64
2022/01/10 03:17:57;;;;;;;84.90;34.80;;;;;;;;;;5033606;28;20647;-65
2022/01/10 03:20:24;;;;;;;81.80;34.50;;;;;;;;;;5033254;28;20241;-64
2022/01/10 03:22:51;;;;;;;97.63;36.23;;;;;;;;;;5048609;28;20482;-64
2022/01/10 03:25:17;;;;;;;127.43;43.33;;;;;;;;;;5033336;28;20984;-64
2022/01/10 03:27:43;;;;;;;100.80;38.77;;;;;;;;;;5048877;28;20461;-64
2022/01/10 03:30:10;;;;;;;112.50;42.83;;;;;;;;;;5033196;28;20902;-65
2022/01/10 03:32:37;;;;;;;124.37;44.50;;;;;;;;;;5033225;28;20675;-64
2022/01/10 03:35:03;;;;;;;112.30;39.90;;;;;;;;;;5033434;28;20418;-65
2022/01/10 03:37:29;;;;;;;127.27;45.93;;;;;;;;;;5035456;28;20453;-65
2022/01/10 03:39:55;;;;;;;98.37;37.80;;;;;;;;;;5037151;28;21007;-64
2022/01/10 03:42:21;;;;;;;110.00;42.80;;;;;;;;;;5036948;28;20182;-64
2022/01/10 03:44:47;;;;;;;120.57;43.47;;;;;;;;;;5037197;28;20266;-65
2022/01/10 03:47:13;;;;;;;122.50;46.83;;;;;;;;;;5037073;28;20644;-65
2022/01/10 03:49:39;;;;;;;98.57;40.83;;;;;;;;;;5036815;28;20674;-67
2022/01/10 03:52:05;;;;;;;113.93;41.73;;;;;;;;;;5036872;28;20402;-65
2022/01/10 03:54:31;;;;;;;108.70;40.23;;;;;;;;;;5052277;28;20859;-65
2022/01/10 03:56:57;;;;;;;105.80;38.90;;;;;;;;;;5052057;28;20478;-64
2022/01/10 03:59:23;;;;;;;109.90;41.30;;;;;;;;;;5053652;28;20457;-65
2022/01/10 04:01:51;;;;;;;96.07;39.57;;;;;;;;;;5037331;28;20262;-65
2022/01/10 04:04:17;;;;;;;99.13;38.23;;;;;;;;;;5036835;28;20256;-65
2022/01/10 04:06:43;;;;;;;92.93;36.37;;;;;;;;;;5051993;28;20441;-64
2022/01/10 04:09:10;;;;;;;96.60;36.00;;;;;;;;;;5036753;28;20406;-65
2022/01/10 04:11:36;;;;;;;94.77;34.20;;;;;;;;;;5052411;28;20425;-65
2022/01/10 04:14:02;;;;;;;91.97;33.60;;;;;;;;;;5052000;28;20420;-64
2022/01/10 04:16:28;;;;;;;84.77;31.77;;;;;;;;;;5036243;28;20438;-64
2022/01/10 04:18:54;;;;;;;74.47;31.23;;;;;;;;;;5036434;28;20179;-64
2022/01/10 04:21:20;;;;;;;89.80;32.50;;;;;;;;;;5036318;28;20415;-64
2022/01/10 04:23:46;;;;;;;87.00;31.97;;;;;;;;;;5051501;28;20417;-64
2022/01/10 04:26:12;;;;;;;81.57;29.97;;;;;;;;;;5051529;28;20518;-64
2022/01/10 04:28:38;;;;;;;79.43;29.63;;;;;;;;;;5051677;28;20187;-64
2022/01/10 04:31:04;;;;;;;81.87;29.50;;;;;;;;;;5036149;28;20704;-65
2022/01/10 04:33:30;;;;;;;78.90;30.97;;;;;;;;;;5036193;28;20414;-64
2022/01/10 04:35:57;;;;;;;78.73;31.27;;;;;;;;;;5051744;28;20433;-64
2022/01/10 04:38:24;;;;;;;77.13;30.50;;;;;;;;;;5036022;28;20508;-65
2022/01/10 04:40:50;;;;;;;81.63;31.60;;;;;;;;;;5051411;28;21082;-64
2022/01/10 04:43:16;;;;;;;77.53;30.83;;;;;;;;;;5036617;28;20417;-64
2022/01/10 04:45:42;;;;;;;85.83;31.00;;;;;;;;;;5051185;28;20599;-65
2022/01/10 04:48:08;;;;;;;76.90;29.37;;;;;;;;;;5035146;28;20452;-64
2022/01/10 04:53:19;;;;;;;77.90;28.90;;;;;;;;;;5036201;28;20449;-64
2022/01/10 04:55:45;;;;;;;74.17;27.90;;;;;;;;;;5035683;28;20949;-65
2022/01/10 04:58:11;;;;;;;69.40;28.90;;;;;;;;;;5035896;28;20496;-65
2022/01/10 05:00:37;;;;;;;80.20;30.27;;;;;;;;;;5051227;28;20198;-66
2022/01/10 05:03:03;;;;;;;80.00;29.63;;;;;;;;;;5036181;28;20182;-65
2022/01/10 05:05:29;;;;;;;78.27;29.97;;;;;;;;;;5035521;28;20206;-65
2022/01/10 05:07:55;;;;;;;67.80;29.33;;;;;;;;;;5035858;28;20261;-65
2022/01/10 05:10:21;;;;;;;75.03;29.17;;;;;;;;;;5051063;28;20235;-64
2022/01/10 05:12:47;;;;;;;70.90;29.10;;;;;;;;;;5036096;28;20882;-65
2022/01/10 05:15:13;;;;;;;67.20;28.23;;;;;;;;;;5035449;28;20187;-64
2022/01/10 05:17:39;;;;;;;71.97;29.27;;;;;;;;;;5035731;28;20575;-65
2022/01/10 05:20:05;;;;;;;76.07;28.53;;;;;;;;;;5035633;28;20412;-65
2022/01/10 05:22:31;;;;;;;75.17;28.77;;;;;;;;;;5051052;28;20484;-64
2022/01/10 05:24:57;;;;;;;69.00;30.33;;;;;;;;;;5050625;28;20526;-65
2022/01/10 05:27:23;;;;;;;68.73;29.30;;;;;;;;;;5035333;28;20956;-64
2022/01/10 05:29:49;;;;;;;83.50;29.27;;;;;;;;;;5035158;28;20230;-65
2022/01/10 05:32:15;;;;;;;71.43;27.07;;;;;;;;;;5035590;28;20186;-65
2022/01/10 05:34:41;;;;;;;64.33;28.77;;;;;;;;;;5050597;28;20187;-64
2022/01/10 05:37:07;;;;;;;74.83;31.63;;;;;;;;;;5050456;28;21016;-64
2022/01/10 05:39:33;;;;;;;72.57;29.03;;;;;;;;;;5050635;28;20734;-65
2022/01/10 05:41:59;;;;;;;73.00;29.17;;;;;;;;;;5050475;28;20180;-66
2022/01/10 05:44:26;;;;;;;74.87;29.90;;;;;;;;;;5035064;28;20242;-64
2022/01/10 05:46:53;;;;;;;64.80;28.57;;;;;;;;;;5035401;28;20246;-65
2022/01/10 05:49:25;;;;;;;75.27;29.67;;;;;;;;;;5059455;28;20414;-65
2022/01/10 05:51:51;;;;;;;81.47;31.43;;;;;;;;;;5063495;28;20414;-65
2022/01/10 05:54:17;;;;;;;72.60;29.50;;;;;;;;;;5063383;28;20486;-65
2022/01/10 05:56:43;;;;;;;71.30;29.23;;;;;;;;;;5066348;28;20486;-65
2022/01/10 05:59:09;;;;;;;72.43;30.87;;;;;;;;;;5039383;28;20886;-64
2022/01/10 06:01:35;;;;;;;72.67;31.73;;;;;;;;;;5036213;28;20262;-65
2022/01/10 06:04:01;;;;;;;77.37;31.37;;;;;;;;;;5035683;28;20182;-65
2022/01/10 06:06:27;;;;;;;73.57;31.70;;;;;;;;;;5050658;28;20241;-64
2022/01/10 06:08:53;;;;;;;67.87;31.90;;;;;;;;;;5050613;28;20184;-64
2022/01/10 06:11:19;;;;;;;81.50;31.73;;;;;;;;;;5035194;28;20186;-64
2022/01/10 06:13:45;;;;;;;85.73;32.77;;;;;;;;;;5050782;28;20185;-65
2022/01/10 06:16:11;;;;;;;83.00;34.13;;;;;;;;;;5034989;28;20567;-65
2022/01/10 06:18:37;;;;;;;89.23;33.57;;;;;;;;;;5050913;28;20189;-66
2022/01/10 06:21:03;;;;;;;85.53;33.23;;;;;;;;;;5050665;28;20429;-65
2022/01/10 06:23:29;;;;;;;73.10;33.37;;;;;;;;;;5035403;28;20181;-64
2022/01/10 06:25:54;;;;;;;75.27;33.63;;;;;;;;;;5050422;28;20266;-65
2022/01/10 06:28:20;;;;;;;75.00;32.13;;;;;;;;;;5050243;28;20181;-64
2022/01/10 06:30:46;;;;;;;78.10;31.60;;;;;;;;;;5035045;28;20302;-65
2022/01/10 06:33:12;;;;;;;80.23;32.57;;;;;;;;;;5050145;28;20270;-65
2022/01/10 06:35:38;;;;;;;85.30;34.50;;;;;;;;;;5034674;28;20183;-64
2022/01/10 06:38:04;;;;;;;82.93;33.17;;;;;;;;;;5034819;28;20414;-64
2022/01/10 06:40:30;;;;;;;74.40;31.07;;;;;;;;;;5034841;28;20210;-64
2022/01/10 06:42:56;;;;;;;67.07;30.07;;;;;;;;;;5050081;28;20248;-64
2022/01/10 06:45:22;;;;;;;81.77;31.83;;;;;;;;;;5034991;28;20911;-64
2022/01/10 06:47:49;;;;;;;78.73;32.37;;;;;;;;;;5034734;28;20431;-65
2022/01/10 06:50:15;;;;;;;78.23;32.53;;;;;;;;;;5034391;28;20432;-64
2022/01/10 06:52:41;;;;;;;83.83;32.33;;;;;;;;;;5049729;28;20906;-65
2022/01/10 06:55:07;;;;;;;76.87;33.33;;;;;;;;;;5049796;28;20186;-64
2022/01/10 06:57:33;;;;;;;83.20;33.47;;;;;;;;;;5034534;28;20257;-64
2022/01/10 07:00:02;;;;;;;69.63;31.30;;;;;;;;;;5034008;28;20450;-64
2022/01/10 07:02:28;;;;;;;77.63;32.33;;;;;;;;;;5033784;28;20217;-65
2022/01/10 07:04:55;;;;;;;73.80;32.23;;;;;;;;;;5034250;28;20462;-65
2022/01/10 07:07:21;;;;;;;72.33;32.50;;;;;;;;;;5034163;28;20198;-64
2022/01/10 07:09:46;;;;;;;78.57;32.57;;;;;;;;;;5033911;28;20421;-65
2022/01/10 07:12:13;;;;;;;79.23;33.27;;;;;;;;;;5037758;28;20409;-64
2022/01/10 07:14:39;;;;;;;67.80;32.27;;;;;;;;;;5055761;28;20274;-64
2022/01/10 07:17:05;;;;;;;76.17;33.33;;;;;;;;;;5040145;28;20441;-64
2022/01/10 07:19:31;;;;;;;88.73;32.70;;;;;;;;;;5040386;28;20416;-64
2022/01/10 07:21:57;;;;;;;86.70;33.03;;;;;;;;;;5040117;28;20413;-64
2022/01/10 07:24:23;;;;;;;98.60;38.47;;;;;;;;;;5040219;28;20226;-64
2022/01/10 07:26:49;;;;;;;105.10;45.30;;;;;;;;;;5055796;28;20438;-63
2022/01/10 07:29:15;;;;;;;89.17;40.67;;;;;;;;;;5055515;28;20418;-65
2022/01/10 07:31:41;;;;;;;95.17;40.77;;;;;;;;;;5055799;28;20788;-64
2022/01/10 07:34:10;;;;;;;85.93;36.10;;;;;;;;;;5040434;28;20548;-64
2022/01/10 07:36:36;;;;;;;79.40;35.23;;;;;;;;;;5055696;28;20496;-64
2022/01/10 07:39:03;;;;;;;86.67;34.97;;;;;;;;;;5039998;28;20497;-64
2022/01/10 07:41:29;;;;;;;102.40;34.67;;;;;;;;;;5040102;28;20410;-64
2022/01/10 07:43:56;;;;;;;83.27;34.83;;;;;;;;;;5055456;28;20425;-64
2022/01/10 07:46:22;;;;;;;80.43;34.37;;;;;;;;;;5040019;28;20213;-66
2022/01/10 07:48:48;;;;;;;87.23;34.23;;;;;;;;;;5039980;28;20444;-64
2022/01/10 07:51:14;;;;;;;83.17;32.93;;;;;;;;;;5039725;28;20414;-64
2022/01/10 07:53:41;;;;;;;81.37;33.33;;;;;;;;;;5040688;28;20585;-64
2022/01/10 07:56:07;;;;;;;97.53;33.70;;;;;;;;;;5039467;28;20960;-64
2022/01/10 07:58:33;;;;;;;107.50;41.10;;;;;;;;;;5040003;28;20382;-65
2022/01/10 08:00:59;;;;;;;113.10;45.30;;;;;;;;;;5055150;28;20428;-64
2022/01/10 08:03:26;;;;;;;113.27;43.30;;;;;;;;;;5040025;28;20179;-64
2022/01/10 08:05:52;;;;;;;114.23;40.67;;;;;;;;;;5054989;28;20484;-64
2022/01/10 08:08:18;;;;;;;97.20;38.60;;;;;;;;;;5039735;28;20497;-63
2022/01/10 08:10:44;;;;;;;104.43;42.77;;;;;;;;;;5039686;28;20445;-64
2022/01/10 08:13:10;;;;;;;101.00;41.87;;;;;;;;;;5054961;28;20229;-64
2022/01/10 08:15:36;;;;;;;110.93;39.07;;;;;;;;;;5039923;28;20174;-64
2022/01/10 08:18:02;;;;;;;90.23;38.60;;;;;;;;;;5040018;28;20530;-64
2022/01/10 08:20:28;;;;;;;97.83;38.53;;;;;;;;;;5055085;28;20217;-64
2022/01/10 08:22:54;;;;;;;88.13;36.90;;;;;;;;;;5052762;28;20422;-64
2022/01/10 08:25:20;;;;;;;100.50;38.27;;;;;;;;;;5036450;28;20213;-64
2022/01/10 08:27:46;;;;;;;87.60;36.00;;;;;;;;;;5037137;28;20202;-64
2022/01/10 08:30:12;;;;;;;99.43;40.70;;;;;;;;;;5053876;28;20646;-64
2022/01/10 08:32:38;;;;;;;93.97;38.07;;;;;;;;;;5052638;28;20179;-64
2022/01/10 08:35:05;;;;;;;96.03;39.47;;;;;;;;;;5052778;28;20516;-64
2022/01/10 08:37:31;;;;;;;88.30;37.40;;;;;;;;;;5052697;28;20207;-64
2022/01/10 08:39:57;;;;;;;1999.90;574.77;;;;;;;;;;5036948;28;20410;-65
2022/01/10 08:42:24;;;;;;;89.70;37.37;;;;;;;;;;5051771;28;20467;-64
2022/01/10 08:44:50;;;;;;;92.57;36.70;;;;;;;;;;5051783;28;20535;-65
2022/01/10 08:47:16;;;;;;;102.70;39.10;;;;;;;;;;5051759;28;20426;-65
2022/01/10 08:49:42;;;;;;;104.40;38.13;;;;;;;;;;5051709;28;20413;-66
2022/01/10 08:52:09;;;;;;;104.43;36.43;;;;;;;;;;5037274;28;20414;-67
2022/01/10 08:54:35;;;;;;;113.40;39.33;;;;;;;;;;5036139;28;20416;-66
2022/01/10 08:57:02;;;;;;;93.50;36.93;;;;;;;;;;5036337;28;20461;-66
2022/01/10 08:59:28;;;;;;;94.37;34.83;;;;;;;;;;5051328;28;20489;-66
2022/01/10 09:01:54;;;;;;;105.33;35.10;;;;;;;;;;5036741;28;20425;-65
2022/01/10 09:04:20;;;;;;;99.17;35.03;;;;;;;;;;5036239;28;20422;-66
2022/01/10 09:06:47;;;;;;;86.73;32.40;;;;;;;;;;5051044;28;20448;-66
2022/01/10 09:09:14;;;;;;;93.70;32.83;;;;;;;;;;5051334;28;20183;-66
2022/01/10 09:11:40;;;;;;;92.63;32.40;;;;;;;;;;5036027;28;20410;-66
2022/01/10 09:14:07;;;;;;;111.47;35.93;;;;;;;;;;5035629;28;20406;-66
2022/01/10 09:16:33;;;;;;;88.03;31.57;;;;;;;;;;5050894;28;20442;-66
2022/01/10 09:18:59;;;;;;;91.73;32.50;;;;;;;;;;5050896;28;20429;-66
2022/01/10 09:21:25;;;;;;;89.83;31.77;;;;;;;;;;5035973;28;20178;-66
2022/01/10 09:23:51;;;;;;;89.93;33.63;;;;;;;;;;5035268;28;20417;-66
2022/01/10 09:26:17;;;;;;;100.67;34.27;;;;;;;;;;5035107;28;20487;-65
2022/01/10 09:28:43;;;;;;;93.43;32.93;;;;;;;;;;5050760;28;20914;-66
2022/01/10 09:31:10;;;;;;;93.57;34.90;;;;;;;;;;5051034;28;20183;-66
2022/01/10 09:33:36;;;;;;;93.83;34.33;;;;;;;;;;5035438;28;20178;-66
2022/01/10 09:36:02;;;;;;;79.70;31.43;;;;;;;;;;5034937;28;21008;-65
2022/01/10 09:38:28;;;;;;;87.40;33.50;;;;;;;;;;5035974;28;20451;-66
2022/01/10 09:40:54;;;;;;;87.27;32.63;;;;;;;;;;5035449;28;20183;-66
2022/01/10 09:43:21;;;;;;;83.53;32.50;;;;;;;;;;5050865;28;20194;-66
2022/01/10 09:45:47;;;;;;;84.97;31.97;;;;;;;;;;5035621;28;20556;-66
2022/01/10 09:48:13;;;;;;;94.67;34.60;;;;;;;;;;5051145;28;20418;-66
2022/01/10 09:50:40;;;;;;;88.93;33.63;;;;;;;;;;5035946;28;20425;-66
2022/01/10 09:53:06;;;;;;;89.57;35.60;;;;;;;;;;5035339;28;20176;-66
2022/01/10 09:55:33;;;;;;;103.63;34.97;;;;;;;;;;5035243;28;20587;-66
2022/01/10 09:58:00;;;;;;;94.43;35.23;;;;;;;;;;5035857;28;20422;-66
2022/01/10 10:00:26;;;;;;;92.10;33.63;;;;;;;;;;5050697;28;20429;-67
2022/01/10 10:02:52;;;;;;;92.23;34.97;;;;;;;;;;5035468;28;20436;-67
2022/01/10 10:07:48;;;;;;;107.67;38.30;;;;;;;;;;5016588;28;20220;-63
2022/01/10 10:10:14;;;;;;;101.97;36.63;;;;;;;;;;5017794;28;20774;-64
2022/01/10 10:12:41;;;;;;;109.17;36.70;;;;;;;;;;5016579;28;20415;-64
2022/01/10 10:15:08;;;;;;;102.67;36.23;;;;;;;;;;5016270;28;20558;-65
2022/01/10 10:17:35;;;;;;;100.23;37.13;;;;;;;;;;5017576;28;20431;-63
2022/01/10 10:20:06;;;;;;;107.53;36.60;;;;;;;;;;5015688;28;20482;-63
2022/01/10 10:22:32;;;;;;;118.00;38.37;;;;;;;;;;5015717;28;20883;-64
2022/01/10 10:24:58;;;;;;;109.33;37.83;;;;;;;;;;5018151;28;20486;-64
2022/01/10 10:27:25;;;;;;;110.37;36.73;;;;;;;;;;5017577;28;20938;-64
2022/01/10 10:29:51;;;;;;;103.67;35.60;;;;;;;;;;5017053;28;20198;-63
2022/01/10 10:32:17;;;;;;;108.00;35.93;;;;;;;;;;5017280;28;20841;-64
2022/01/10 10:34:43;;;;;;;110.87;35.83;;;;;;;;;;5017225;28;20912;-64
2022/01/10 10:37:10;;;;;;;88.37;32.80;;;;;;;;;;5017043;28;20434;-63
2022/01/10 10:39:38;;;;;;;97.93;34.37;;;;;;;;;;5017129;28;20791;-64
2022/01/10 10:42:05;;;;;;;119.47;41.87;;;;;;;;;;5015784;28;20452;-63
2022/01/10 10:44:31;;;;;;;113.97;40.57;;;;;;;;;;5016970;28;20462;-63
2022/01/10 10:46:57;;;;;;;110.17;37.13;;;;;;;;;;5015263;28;20450;-65
2022/01/10 10:49:32;;;;;;;105.07;36.53;;;;;;;;;;5016329;28;20415;-65
2022/01/10 10:52:00;;;;;;;108.27;40.37;;;;;;;;;;5014303;28;20395;-64
2022/01/10 10:54:28;;;;;;;119.93;43.07;;;;;;;;;;5014187;28;20514;-64
2022/01/10 10:56:54;;;;;;;127.40;45.60;;;;;;;;;;5015615;28;20566;-63
2022/01/10 10:59:24;;;;;;;127.20;43.40;;;;;;;;;;5022952;28;20418;-64
2022/01/10 11:01:51;;;;;;;105.40;39.63;;;;;;;;;;5023670;28;20172;-64
2022/01/10 11:04:17;;;;;;;110.30;40.10;;;;;;;;;;5023701;28;20411;-63
2022/01/10 11:06:43;;;;;;;121.03;43.10;;;;;;;;;;5019572;28;20456;-63
2022/01/10 11:09:12;;;;;;;116.07;42.83;;;;;;;;;;5014603;28;20254;-63
2022/01/10 11:11:38;;;;;;;111.03;39.90;;;;;;;;;;5014504;28;20414;-63
2022/01/10 11:14:05;;;;;;;116.63;43.67;;;;;;;;;;5020640;28;20180;-63
2022/01/10 11:16:31;;;;;;;117.63;41.07;;;;;;;;;;5016701;28;20338;-63
2022/01/10 11:18:57;;;;;;;111.23;37.97;;;;;;;;;;5015587;28;20187;-63
2022/01/10 11:21:24;;;;;;;107.87;38.80;;;;;;;;;;5013027;28;20434;-63
2022/01/10 11:23:50;;;;;;;101.37;37.93;;;;;;;;;;5013096;28;20187;-63
2022/01/10 11:26:17;;;;;;;124.03;43.37;;;;;;;;;;5014263;28;20473;-63
2022/01/10 11:28:50;;;;;;;120.50;42.27;;;;;;;;;;5014220;28;20172;-63
2022/01/10 11:31:27;;;;;;;116.17;44.10;;;;;;;;;;5014466;28;20806;-63
2022/01/10 11:33:54;;;;;;;117.83;44.53;;;;;;;;;;5013544;28;20179;-63
2022/01/10 11:36:27;;;;;;;110.20;39.50;;;;;;;;;;5013931;28;20286;-63
2022/01/10 11:39:09;;;;;;;135.07;48.60;;;;;;;;;;5014276;28;20415;-62
2022/01/10 11:41:35;;;;;;;112.40;40.20;;;;;;;;;;5014308;28;20399;-64
2022/01/10 11:44:04;;;;;;;109.30;37.90;;;;;;;;;;5012987;28;20195;-63
2022/01/10 11:46:40;;;;;;;119.70;38.47;;;;;;;;;;5013617;28;20233;-64
2022/01/10 11:49:09;;;;;;;98.37;35.90;;;;;;;;;;5013875;28;20500;-63
2022/01/10 11:51:45;;;;;;;97.23;35.37;;;;;;;;;;5014177;28;20648;-62
2022/01/10 11:54:11;;;;;;;107.43;37.30;;;;;;;;;;5014346;28;20407;-63
2022/01/10 11:56:39;;;;;;;115.33;38.80;;;;;;;;;;5014046;28;20339;-63
2022/01/10 11:59:11;;;;;;;111.13;43.90;;;;;;;;;;5017168;28;20302;-63
2022/01/10 12:01:42;;;;;;;98.73;36.53;;;;;;;;;;5017834;28;20255;-63
2022/01/10 12:04:08;;;;;;;104.30;38.00;;;;;;;;;;5017717;28;20166;-63
2022/01/10 12:06:34;;;;;;;95.17;35.30;;;;;;;;;;5017471;28;20215;-64
2022/01/10 12:09:00;;;;;;;97.07;37.13;;;;;;;;;;5017928;28;20179;-63
2022/01/10 12:11:28;;;;;;;108.10;37.17;;;;;;;;;;5017516;28;20547;-64
2022/01/10 12:13:55;;;;;;;122.53;43.77;;;;;;;;;;5023411;28;20187;-63
2022/01/10 12:16:22;;;;;;;109.10;38.63;;;;;;;;;;5038855;28;20207;-64
2022/01/10 12:18:48;;;;;;;103.73;38.70;;;;;;;;;;5026097;28;20230;-63
2022/01/10 12:21:14;;;;;;;107.83;42.73;;;;;;;;;;5018118;28;20188;-63
2022/01/10 12:23:41;;;;;;;100.37;38.87;;;;;;;;;;5018442;28;20180;-64
2022/01/10 12:26:07;;;;;;;97.03;38.13;;;;;;;;;;5018520;28;20293;-63
2022/01/10 12:28:33;;;;;;;103.13;37.73;;;;;;;;;;5018488;28;20211;-63
2022/01/10 12:31:02;;;;;;;107.53;39.27;;;;;;;;;;5016848;28;20184;-63
2022/01/10 12:33:31;;;;;;;108.60;40.67;;;;;;;;;;5016521;28;20260;-63
2022/01/10 12:35:58;;;;;;;114.17;39.27;;;;;;;;;;5019739;28;20207;-64
2022/01/10 12:38:24;;;;;;;116.63;40.53;;;;;;;;;;5024214;28;20636;-64
2022/01/10 12:40:50;;;;;;;109.00;38.50;;;;;;;;;;5022577;28;20180;-63
2022/01/10 12:43:16;;;;;;;93.23;35.53;;;;;;;;;;5024863;28;20313;-63
2022/01/10 12:45:43;;;;;;;94.83;36.33;;;;;;;;;;5024319;28;20219;-64
2022/01/10 12:48:12;;;;;;;97.97;37.97;;;;;;;;;;5025820;28;20202;-64
2022/01/10 12:50:38;;;;;;;110.63;38.73;;;;;;;;;;5031250;28;20213;-65
2022/01/10 12:53:05;;;;;;;98.57;35.73;;;;;;;;;;5034180;28;20188;-63
2022/01/10 12:55:31;;;;;;;83.83;35.67;;;;;;;;;;5018502;28;20259;-63
2022/01/10 12:57:57;;;;;;;80.57;35.13;;;;;;;;;;5018029;28;20187;-63
2022/01/10 13:00:23;;;;;;;89.33;34.93;;;;;;;;;;5018673;28;20167;-63
2022/01/10 13:02:49;;;;;;;86.67;33.20;;;;;;;;;;5016700;28;20184;-62
2022/01/10 13:05:16;;;;;;;97.10;35.43;;;;;;;;;;5017137;28;20226;-62
2022/01/10 13:07:45;;;;;;;96.93;34.77;;;;;;;;;;5017976;28;20187;-63
2022/01/10 13:10:18;;;;;;;79.10;31.53;;;;;;;;;;5017123;28;20180;-63
2022/01/10 13:12:48;;;;;;;77.60;28.93;;;;;;;;;;5017135;28;20168;-63
2022/01/10 13:15:17;;;;;;;83.77;31.00;;;;;;;;;;5018561;28;20196;-63
2022/01/10 13:17:54;;;;;;;84.63;30.20;;;;;;;;;;5016317;28;20180;-63
2022/01/10 13:20:22;;;;;;;76.87;29.70;;;;;;;;;;5017823;28;20183;-65
2022/01/10 13:22:48;;;;;;;62.47;28.50;;;;;;;;;;5018028;28;20176;-63
2022/01/10 13:25:16;;;;;;;119.73;41.20;;;;;;;;;;5017866;28;20226;-63
2022/01/10 13:27:49;;;;;;;85.33;33.97;;;;;;;;;;5017167;28;20180;-63
2022/01/10 13:30:25;;;;;;;74.10;30.17;;;;;;;;;;5016328;28;20161;-63
2022/01/10 13:32:53;;;;;;;56.23;25.73;;;;;;;;;;5014828;28;20628;-63
2022/01/10 13:35:20;;;;;;;57.67;24.37;;;;;;;;;;5016473;28;20180;-63
2022/01/10 13:37:58;;;;;;;47.23;24.67;;;;;;;;;;5016376;28;20303;-63
2022/01/10 13:40:25;;;;;;;44.03;21.80;;;;;;;;;;5016189;28;20187;-63
2022/01/10 13:42:59;;;;;;;45.27;20.47;;;;;;;;;;5016313;28;20214;-64
2022/01/10 13:45:43;;;;;;;51.43;20.50;;;;;;;;;;5016213;28;20192;-63
2022/01/10 13:48:16;;;;;;;42.67;19.57;;;;;;;;;;5016252;28;20156;-63
2022/01/10 13:50:56;;;;;;;40.20;19.87;;;;;;;;;;5016599;28;20172;-63
2022/01/10 13:53:27;;;;;;;43.97;17.57;;;;;;;;;;5015986;28;20171;-62
2022/01/10 13:56:08;;;;;;;38.73;19.13;;;;;;;;;;5016324;28;20686;-62
2022/01/10 13:58:35;;;;;;;35.80;17.63;;;;;;;;;;5014347;28;20325;-62
2022/01/10 14:01:03;;;;;;;39.40;16.50;;;;;;;;;;5015030;28;20656;-63
2022/01/10 14:03:30;;;;;;;32.63;15.40;;;;;;;;;;5015766;28;20211;-62
2022/01/10 14:06:15;;;;;;;38.90;15.67;;;;;;;;;;5015305;28;20217;-63
2022/01/10 14:08:44;;;;;;;29.90;13.47;;;;;;;;;;5014263;28;20183;-63
2022/01/10 14:11:13;;;;;;;27.40;14.47;;;;;;;;;;5014100;28;20180;-63
2022/01/10 14:13:40;;;;;;;25.33;13.57;;;;;;;;;;5013938;28;20179;-62
2022/01/10 14:16:06;;;;;;;34.43;17.30;;;;;;;;;;5014329;28;20207;-62
2022/01/10 14:18:32;;;;;;;32.47;18.33;;;;;;;;;;5015639;28;20180;-63
2022/01/10 14:20:58;;;;;;;28.57;14.60;;;;;;;;;;5014803;28;20210;-62
2022/01/10 14:23:25;;;;;;;28.03;13.20;;;;;;;;;;5014904;28;20234;-62